Etusivu
METAR-TAF:

METAR-TAF

Lentoasemat :

Odate-Noshiro, Japani

Leveyspiiri: 40-11N, Pituuspiiri: 140-12E, korkeus merenpinnasta: 84 m

Tämänhetkinen sää

Tämä raportti tehtiin 59 minuuttia sitten, kello 03.00 UTC
Tuuli 17 kn etelästä/lounaasta puuskistuen 27 kn:hen
Lämpötila 11°C
Kosteus 71%
Ilmanpaine 1006 hPa
Näkyvyys 10 km tai enemmän
Muutamia pilviä 2000 ft:n korkeudessa
Hajanaisia pilviä 2500 ft:n korkeudessa
Hajonneita pilviä 3500 ft:n korkeudessa
heikkoja vesikuuroja

METAR: RJSR 260300Z 21017G27KT 9999 -SHRA FEW020 SCT025 BKN035 11/06 Q1006

Aika: 12:59 (03:59 UTC)


TAF: puuttuu

Säähavainnot ja -ennusteet yli 4000 lentoasemalta (METAR- ja TAF-raportit).

Käytössä olevat sääasemat on merkitty karttaan keltaisilla ja punaisilla pisteillä.

Aseta hiiri pisteen päälle nähdäksesi sääaseman nimen.

Klikkaa sitten nähdäksesi säähavainnot ja -ennusteet.

Kartan vaihtaminen: klikkaa mustalla rastilla varustettuja vihreitä pisteitä, niin voit zoomata sisään; viivalla varustettua vihreää pistettä, niin voit zoomata ulos tai vihreitä nuolia, niin pääset viereisille kartoille.


METAR-TAF: